sensor_id;sensor_type;location;lat;lon;timestamp;temperature;humidity
68026;SHT31;54819;48.030;14.710;2022-12-18T00:01:15;-4.54;84.56
68026;SHT31;54819;48.030;14.710;2022-12-18T00:03:43;-4.48;84.50
68026;SHT31;54819;48.030;14.710;2022-12-18T00:06:13;-4.45;84.50
68026;SHT31;54819;48.030;14.710;2022-12-18T00:08:41;-4.47;84.51
68026;SHT31;54819;48.030;14.710;2022-12-18T00:11:13;-4.51;84.52
68026;SHT31;54819;48.030;14.710;2022-12-18T00:13:41;-4.58;84.50
68026;SHT31;54819;48.030;14.710;2022-12-18T00:16:09;-4.66;84.45
68026;SHT31;54819;48.030;14.710;2022-12-18T00:18:38;-4.76;84.30
68026;SHT31;54819;48.030;14.710;2022-12-18T00:21:07;-4.88;84.28
68026;SHT31;54819;48.030;14.710;2022-12-18T00:23:36;-5.05;84.22
68026;SHT31;54819;48.030;14.710;2022-12-18T00:26:07;-5.25;84.42
68026;SHT31;54819;48.030;14.710;2022-12-18T00:28:39;-5.41;84.65
68026;SHT31;54819;48.030;14.710;2022-12-18T00:31:07;-5.56;84.83
68026;SHT31;54819;48.030;14.710;2022-12-18T00:33:36;-5.69;84.91
68026;SHT31;54819;48.030;14.710;2022-12-18T00:36:18;-5.82;84.88
68026;SHT31;54819;48.030;14.710;2022-12-18T00:38:47;-5.90;84.94
68026;SHT31;54819;48.030;14.710;2022-12-18T00:41:17;-5.95;84.92
68026;SHT31;54819;48.030;14.710;2022-12-18T00:44:12;-6.01;84.98
68026;SHT31;54819;48.030;14.710;2022-12-18T00:46:40;-6.02;85.01
68026;SHT31;54819;48.030;14.710;2022-12-18T00:49:08;-6.04;85.13
68026;SHT31;54819;48.030;14.710;2022-12-18T00:51:37;-6.06;85.20
68026;SHT31;54819;48.030;14.710;2022-12-18T00:54:04;-6.05;85.21
68026;SHT31;54819;48.030;14.710;2022-12-18T00:56:31;-6.05;85.20
68026;SHT31;54819;48.030;14.710;2022-12-18T00:58:58;-6.04;85.20
68026;SHT31;54819;48.030;14.710;2022-12-18T01:01:24;-6.03;85.20
68026;SHT31;54819;48.030;14.710;2022-12-18T01:03:51;-6.03;85.19
68026;SHT31;54819;48.030;14.710;2022-12-18T01:06:18;-6.02;85.24
68026;SHT31;54819;48.030;14.710;2022-12-18T01:08:46;-6.05;85.61
68026;SHT31;54819;48.030;14.710;2022-12-18T01:11:17;-6.03;85.51
68026;SHT31;54819;48.030;14.710;2022-12-18T01:13:46;-6.02;85.42
68026;SHT31;54819;48.030;14.710;2022-12-18T01:16:13;-6.01;85.29
68026;SHT31;54819;48.030;14.710;2022-12-18T01:18:41;-6.08;85.65
68026;SHT31;54819;48.030;14.710;2022-12-18T01:21:09;-6.14;85.49
68026;SHT31;54819;48.030;14.710;2022-12-18T01:23:37;-6.17;85.52
68026;SHT31;54819;48.030;14.710;2022-12-18T01:26:06;-6.17;85.37
68026;SHT31;54819;48.030;14.710;2022-12-18T01:28:34;-6.20;85.21
68026;SHT31;54819;48.030;14.710;2022-12-18T01:33:42;-6.28;85.02
68026;SHT31;54819;48.030;14.710;2022-12-18T01:36:18;-6.29;84.94
68026;SHT31;54819;48.030;14.710;2022-12-18T01:38:47;-6.33;84.81
68026;SHT31;54819;48.030;14.710;2022-12-18T01:41:15;-6.37;84.79
68026;SHT31;54819;48.030;14.710;2022-12-18T01:43:51;-6.36;84.83
68026;SHT31;54819;48.030;14.710;2022-12-18T01:46:21;-6.33;84.90
68026;SHT31;54819;48.030;14.710;2022-12-18T01:48:52;-6.31;84.94
68026;SHT31;54819;48.030;14.710;2022-12-18T01:51:23;-6.28;85.08
68026;SHT31;54819;48.030;14.710;2022-12-18T01:53:52;-6.18;85.19
68026;SHT31;54819;48.030;14.710;2022-12-18T01:56:19;-6.04;85.23
68026;SHT31;54819;48.030;14.710;2022-12-18T01:58:55;-5.89;85.24
68026;SHT31;54819;48.030;14.710;2022-12-18T02:01:28;-5.74;85.16
68026;SHT31;54819;48.030;14.710;2022-12-18T02:04:19;-5.63;85.02
68026;SHT31;54819;48.030;14.710;2022-12-18T02:06:51;-5.48;84.89
68026;SHT31;54819;48.030;14.710;2022-12-18T02:09:31;-5.38;84.79
68026;SHT31;54819;48.030;14.710;2022-12-18T02:20:16;-5.26;83.69
68026;SHT31;54819;48.030;14.710;2022-12-18T02:28:28;-5.43;83.03
68026;SHT31;54819;48.030;14.710;2022-12-18T02:30:59;-5.47;83.33
68026;SHT31;54819;48.030;14.710;2022-12-18T02:33:30;-5.49;83.27
68026;SHT31;54819;48.030;14.710;2022-12-18T02:36:00;-5.50;83.25
68026;SHT31;54819;48.030;14.710;2022-12-18T02:38:29;-5.44;83.46
68026;SHT31;54819;48.030;14.710;2022-12-18T02:41:01;-5.39;83.53
68026;SHT31;54819;48.030;14.710;2022-12-18T02:43:30;-5.40;83.24
68026;SHT31;54819;48.030;14.710;2022-12-18T02:45:58;-5.45;83.28
68026;SHT31;54819;48.030;14.710;2022-12-18T02:48:32;-5.41;83.43
68026;SHT31;54819;48.030;14.710;2022-12-18T02:51:06;-5.36;83.48
68026;SHT31;54819;48.030;14.710;2022-12-18T02:53:58;-5.37;83.33
68026;SHT31;54819;48.030;14.710;2022-12-18T02:56:35;-5.43;83.24
68026;SHT31;54819;48.030;14.710;2022-12-18T02:59:19;-5.55;83.13
68026;SHT31;54819;48.030;14.710;2022-12-18T03:02:02;-5.69;83.27
68026;SHT31;54819;48.030;14.710;2022-12-18T03:04:33;-5.76;83.47
68026;SHT31;54819;48.030;14.710;2022-12-18T03:07:49;-5.72;83.53
68026;SHT31;54819;48.030;14.710;2022-12-18T03:10:32;-5.69;83.59
68026;SHT31;54819;48.030;14.710;2022-12-18T03:13:06;-5.66;83.57
68026;SHT31;54819;48.030;14.710;2022-12-18T03:15:49;-5.64;83.46
68026;SHT31;54819;48.030;14.710;2022-12-18T03:18:26;-5.62;83.53
68026;SHT31;54819;48.030;14.710;2022-12-18T03:21:00;-5.63;83.50
68026;SHT31;54819;48.030;14.710;2022-12-18T03:23:38;-5.64;83.49
68026;SHT31;54819;48.030;14.710;2022-12-18T03:26:10;-5.64;83.49
68026;SHT31;54819;48.030;14.710;2022-12-18T03:28:43;-5.67;83.37
68026;SHT31;54819;48.030;14.710;2022-12-18T03:31:24;-5.73;83.26
68026;SHT31;54819;48.030;14.710;2022-12-18T03:33:59;-5.84;83.14
68026;SHT31;54819;48.030;14.710;2022-12-18T03:36:38;-5.96;83.16
68026;SHT31;54819;48.030;14.710;2022-12-18T03:39:06;-6.04;83.26
68026;SHT31;54819;48.030;14.710;2022-12-18T03:41:43;-6.10;83.36
68026;SHT31;54819;48.030;14.710;2022-12-18T03:49:59;-6.35;83.11
68026;SHT31;54819;48.030;14.710;2022-12-18T03:52:50;-6.44;83.23
68026;SHT31;54819;48.030;14.710;2022-12-18T03:55:23;-6.49;83.43
68026;SHT31;54819;48.030;14.710;2022-12-18T03:57:57;-6.53;83.48
68026;SHT31;54819;48.030;14.710;2022-12-18T04:00:29;-6.57;83.42
68026;SHT31;54819;48.030;14.710;2022-12-18T04:03:03;-6.65;83.41
68026;SHT31;54819;48.030;14.710;2022-12-18T04:05:37;-6.69;83.51
68026;SHT31;54819;48.030;14.710;2022-12-18T04:08:05;-6.74;83.71
68026;SHT31;54819;48.030;14.710;2022-12-18T04:10:34;-6.79;83.89
68026;SHT31;54819;48.030;14.710;2022-12-18T04:13:02;-6.91;84.33
68026;SHT31;54819;48.030;14.710;2022-12-18T04:15:29;-6.98;84.96
68026;SHT31;54819;48.030;14.710;2022-12-18T04:18:00;-7.03;85.10
68026;SHT31;54819;48.030;14.710;2022-12-18T04:20:31;-7.16;85.94
68026;SHT31;54819;48.030;14.710;2022-12-18T04:22:58;-7.17;85.42
68026;SHT31;54819;48.030;14.710;2022-12-18T04:25:28;-7.27;85.29
68026;SHT31;54819;48.030;14.710;2022-12-18T04:28:06;-7.28;85.17
68026;SHT31;54819;48.030;14.710;2022-12-18T04:30:34;-7.27;85.00
68026;SHT31;54819;48.030;14.710;2022-12-18T04:33:00;-7.26;84.88
68026;SHT31;54819;48.030;14.710;2022-12-18T04:35:28;-7.27;84.71
68026;SHT31;54819;48.030;14.710;2022-12-18T04:37:55;-7.30;84.58
68026;SHT31;54819;48.030;14.710;2022-12-18T04:40:22;-7.32;84.51
68026;SHT31;54819;48.030;14.710;2022-12-18T04:42:49;-7.32;84.50
68026;SHT31;54819;48.030;14.710;2022-12-18T04:45:16;-7.32;84.45
68026;SHT31;54819;48.030;14.710;2022-12-18T04:47:44;-7.32;84.40
68026;SHT31;54819;48.030;14.710;2022-12-18T04:50:11;-7.32;84.37
68026;SHT31;54819;48.030;14.710;2022-12-18T04:52:38;-7.32;84.29
68026;SHT31;54819;48.030;14.710;2022-12-18T04:55:05;-7.35;84.21
68026;SHT31;54819;48.030;14.710;2022-12-18T04:57:32;-7.40;84.09
68026;SHT31;54819;48.030;14.710;2022-12-18T04:59:59;-7.47;84.02
68026;SHT31;54819;48.030;14.710;2022-12-18T05:02:26;-7.52;84.10
68026;SHT31;54819;48.030;14.710;2022-12-18T05:04:53;-7.55;84.19
68026;SHT31;54819;48.030;14.710;2022-12-18T05:07:20;-7.57;84.19
68026;SHT31;54819;48.030;14.710;2022-12-18T05:09:47;-7.58;84.10
68026;SHT31;54819;48.030;14.710;2022-12-18T05:12:13;-7.60;84.04
68026;SHT31;54819;48.030;14.710;2022-12-18T05:14:40;-7.63;83.91
68026;SHT31;54819;48.030;14.710;2022-12-18T05:17:07;-7.67;83.90
68026;SHT31;54819;48.030;14.710;2022-12-18T05:19:34;-7.71;83.90
68026;SHT31;54819;48.030;14.710;2022-12-18T05:22:02;-7.74;83.81
68026;SHT31;54819;48.030;14.710;2022-12-18T05:24:29;-7.75;83.78
68026;SHT31;54819;48.030;14.710;2022-12-18T05:26:56;-7.78;83.74
68026;SHT31;54819;48.030;14.710;2022-12-18T05:29:23;-7.80;83.66
68026;SHT31;54819;48.030;14.710;2022-12-18T05:31:49;-7.80;83.69
68026;SHT31;54819;48.030;14.710;2022-12-18T05:34:16;-7.84;83.63
68026;SHT31;54819;48.030;14.710;2022-12-18T05:36:43;-7.85;83.70
68026;SHT31;54819;48.030;14.710;2022-12-18T05:39:10;-7.84;83.69
68026;SHT31;54819;48.030;14.710;2022-12-18T05:41:37;-7.86;83.69
68026;SHT31;54819;48.030;14.710;2022-12-18T05:44:04;-7.86;83.69
68026;SHT31;54819;48.030;14.710;2022-12-18T05:46:31;-7.87;83.63
68026;SHT31;54819;48.030;14.710;2022-12-18T05:48:59;-7.95;83.68
68026;SHT31;54819;48.030;14.710;2022-12-18T05:51:27;-7.96;83.70
68026;SHT31;54819;48.030;14.710;2022-12-18T05:53:54;-7.98;83.62
68026;SHT31;54819;48.030;14.710;2022-12-18T05:56:21;-7.97;83.69
68026;SHT31;54819;48.030;14.710;2022-12-18T05:58:53;-7.97;83.63
68026;SHT31;54819;48.030;14.710;2022-12-18T06:01:21;-7.98;83.60
68026;SHT31;54819;48.030;14.710;2022-12-18T06:03:50;-7.99;83.53
68026;SHT31;54819;48.030;14.710;2022-12-18T06:06:21;-8.00;83.48
68026;SHT31;54819;48.030;14.710;2022-12-18T06:08:50;-8.03;83.46
68026;SHT31;54819;48.030;14.710;2022-12-18T06:11:19;-8.06;83.44
68026;SHT31;54819;48.030;14.710;2022-12-18T06:13:51;-8.11;83.29
68026;SHT31;54819;48.030;14.710;2022-12-18T06:16:24;-8.23;83.33
68026;SHT31;54819;48.030;14.710;2022-12-18T06:18:51;-8.27;83.33
68026;SHT31;54819;48.030;14.710;2022-12-18T06:21:17;-8.28;83.31
68026;SHT31;54819;48.030;14.710;2022-12-18T06:23:44;-8.29;83.35
68026;SHT31;54819;48.030;14.710;2022-12-18T06:26:12;-8.26;83.40
68026;SHT31;54819;48.030;14.710;2022-12-18T06:28:39;-8.24;83.39
68026;SHT31;54819;48.030;14.710;2022-12-18T06:31:07;-8.23;83.40
68026;SHT31;54819;48.030;14.710;2022-12-18T06:33:34;-8.21;83.40
68026;SHT31;54819;48.030;14.710;2022-12-18T06:36:03;-8.21;83.38
68026;SHT31;54819;48.030;14.710;2022-12-18T06:38:36;-8.22;83.32
68026;SHT31;54819;48.030;14.710;2022-12-18T06:41:08;-8.27;83.22
68026;SHT31;54819;48.030;14.710;2022-12-18T06:43:36;-8.33;83.10
68026;SHT31;54819;48.030;14.710;2022-12-18T06:46:03;-8.35;83.19
68026;SHT31;54819;48.030;14.710;2022-12-18T06:48:31;-8.35;83.27
68026;SHT31;54819;48.030;14.710;2022-12-18T06:50:58;-8.31;83.84
68026;SHT31;54819;48.030;14.710;2022-12-18T06:53:25;-8.26;83.90
68026;SHT31;54819;48.030;14.710;2022-12-18T06:55:58;-8.25;83.66
68026;SHT31;54819;48.030;14.710;2022-12-18T06:58:34;-8.26;83.52
68026;SHT31;54819;48.030;14.710;2022-12-18T07:01:05;-8.25;83.51
68026;SHT31;54819;48.030;14.710;2022-12-18T07:03:33;-8.22;83.49
68026;SHT31;54819;48.030;14.710;2022-12-18T07:06:00;-8.19;83.49
68026;SHT31;54819;48.030;14.710;2022-12-18T07:08:28;-8.17;83.41
68026;SHT31;54819;48.030;14.710;2022-12-18T07:10:56;-8.12;83.45
68026;SHT31;54819;48.030;14.710;2022-12-18T07:13:23;-8.07;83.48
68026;SHT31;54819;48.030;14.710;2022-12-18T07:15:50;-8.04;83.37
68026;SHT31;54819;48.030;14.710;2022-12-18T07:18:17;-8.03;83.29
68026;SHT31;54819;48.030;14.710;2022-12-18T07:20:43;-8.01;83.23
68026;SHT31;54819;48.030;14.710;2022-12-18T07:23:11;-7.96;83.19
68026;SHT31;54819;48.030;14.710;2022-12-18T07:25:38;-7.91;83.19
68026;SHT31;54819;48.030;14.710;2022-12-18T07:28:05;-7.84;83.15
68026;SHT31;54819;48.030;14.710;2022-12-18T07:30:36;-7.75;83.11
68026;SHT31;54819;48.030;14.710;2022-12-18T07:33:04;-7.69;83.08
68026;SHT31;54819;48.030;14.710;2022-12-18T07:35:32;-7.63;82.95
68026;SHT31;54819;48.030;14.710;2022-12-18T07:37:59;-7.58;82.83
68026;SHT31;54819;48.030;14.710;2022-12-18T07:40:26;-7.55;82.76
68026;SHT31;54819;48.030;14.710;2022-12-18T07:42:53;-7.47;82.82
68026;SHT31;54819;48.030;14.710;2022-12-18T07:45:20;-7.41;82.80
68026;SHT31;54819;48.030;14.710;2022-12-18T07:47:46;-7.33;82.80
68026;SHT31;54819;48.030;14.710;2022-12-18T07:50:13;-7.24;82.74
68026;SHT31;54819;48.030;14.710;2022-12-18T07:52:41;-7.17;82.69
68026;SHT31;54819;48.030;14.710;2022-12-18T07:55:07;-7.09;82.59
68026;SHT31;54819;48.030;14.710;2022-12-18T07:57:34;-7.02;82.50
68026;SHT31;54819;48.030;14.710;2022-12-18T08:00:21;-6.92;82.49
68026;SHT31;54819;48.030;14.710;2022-12-18T08:02:48;-6.85;82.40
68026;SHT31;54819;48.030;14.710;2022-12-18T08:05:15;-6.78;82.41
68026;SHT31;54819;48.030;14.710;2022-12-18T08:07:42;-6.70;82.44
68026;SHT31;54819;48.030;14.710;2022-12-18T08:10:09;-6.65;82.36
68026;SHT31;54819;48.030;14.710;2022-12-18T08:12:36;-6.57;82.39
68026;SHT31;54819;48.030;14.710;2022-12-18T08:15:02;-6.46;82.53
68026;SHT31;54819;48.030;14.710;2022-12-18T08:17:30;-6.35;82.60
68026;SHT31;54819;48.030;14.710;2022-12-18T08:19:57;-6.23;82.64
68026;SHT31;54819;48.030;14.710;2022-12-18T08:22:24;-6.11;82.60
68026;SHT31;54819;48.030;14.710;2022-12-18T08:24:51;-5.97;82.55
68026;SHT31;54819;48.030;14.710;2022-12-18T08:27:17;-5.86;82.40
68026;SHT31;54819;48.030;14.710;2022-12-18T08:30:00;-5.77;82.19
68026;SHT31;54819;48.030;14.710;2022-12-18T08:32:27;-5.70;82.10
68026;SHT31;54819;48.030;14.710;2022-12-18T08:34:54;-5.61;82.11
68026;SHT31;54819;48.030;14.710;2022-12-18T08:37:21;-5.50;82.12
68026;SHT31;54819;48.030;14.710;2022-12-18T08:39:48;-5.43;82.10
68026;SHT31;54819;48.030;14.710;2022-12-18T08:42:15;-5.36;82.16
68026;SHT31;54819;48.030;14.710;2022-12-18T08:45:00;-5.28;82.00
68026;SHT31;54819;48.030;14.710;2022-12-18T08:47:28;-5.23;81.94
68026;SHT31;54819;48.030;14.710;2022-12-18T08:49:55;-5.22;81.98
68026;SHT31;54819;48.030;14.710;2022-12-18T08:52:21;-5.13;81.73
68026;SHT31;54819;48.030;14.710;2022-12-18T08:54:48;-5.10;81.51
68026;SHT31;54819;48.030;14.710;2022-12-18T08:57:15;-5.11;81.67
68026;SHT31;54819;48.030;14.710;2022-12-18T08:59:42;-5.11;81.73
68026;SHT31;54819;48.030;14.710;2022-12-18T09:02:09;-5.07;81.74
68026;SHT31;54819;48.030;14.710;2022-12-18T09:04:37;-5.02;81.73
68026;SHT31;54819;48.030;14.710;2022-12-18T09:07:06;-4.97;81.80
68026;SHT31;54819;48.030;14.710;2022-12-18T09:09:33;-4.92;81.80
68026;SHT31;54819;48.030;14.710;2022-12-18T09:12:00;-4.87;81.87
68026;SHT31;54819;48.030;14.710;2022-12-18T09:14:26;-4.81;81.81
68026;SHT31;54819;48.030;14.710;2022-12-18T09:16:53;-4.75;81.81
68026;SHT31;54819;48.030;14.710;2022-12-18T09:19:20;-4.69;81.90
68026;SHT31;54819;48.030;14.710;2022-12-18T09:21:47;-4.64;81.75
68026;SHT31;54819;48.030;14.710;2022-12-18T09:24:14;-4.62;81.58
68026;SHT31;54819;48.030;14.710;2022-12-18T09:26:41;-4.59;81.57
68026;SHT31;54819;48.030;14.710;2022-12-18T09:29:12;-4.51;81.65
68026;SHT31;54819;48.030;14.710;2022-12-18T09:31:40;-4.43;81.70
68026;SHT31;54819;48.030;14.710;2022-12-18T09:34:07;-4.36;81.84
68026;SHT31;54819;48.030;14.710;2022-12-18T09:36:34;-4.27;81.90
68026;SHT31;54819;48.030;14.710;2022-12-18T09:39:00;-4.21;81.91
68026;SHT31;54819;48.030;14.710;2022-12-18T09:41:43;-4.14;82.09
68026;SHT31;54819;48.030;14.710;2022-12-18T09:44:24;-4.09;82.02
68026;SHT31;54819;48.030;14.710;2022-12-18T09:46:57;-3.99;82.18
68026;SHT31;54819;48.030;14.710;2022-12-18T09:49:26;-3.86;81.97
68026;SHT31;54819;48.030;14.710;2022-12-18T09:51:58;-3.71;81.82
68026;SHT31;54819;48.030;14.710;2022-12-18T09:54:35;-3.60;81.58
68026;SHT31;54819;48.030;14.710;2022-12-18T09:57:06;-3.54;80.97
68026;SHT31;54819;48.030;14.710;2022-12-18T09:59:36;-3.49;80.71
68026;SHT31;54819;48.030;14.710;2022-12-18T10:02:22;-3.43;80.51
68026;SHT31;54819;48.030;14.710;2022-12-18T10:05:09;-3.42;79.98
68026;SHT31;54819;48.030;14.710;2022-12-18T10:07:47;-3.41;80.12
68026;SHT31;54819;48.030;14.710;2022-12-18T10:10:21;-3.34;80.13
68026;SHT31;54819;48.030;14.710;2022-12-18T10:18:50;-3.14;80.55
68026;SHT31;54819;48.030;14.710;2022-12-18T10:21:32;-3.11;80.40
68026;SHT31;54819;48.030;14.710;2022-12-18T10:26:42;-3.09;80.64
68026;SHT31;54819;48.030;14.710;2022-12-18T10:29:11;-3.09;80.76
68026;SHT31;54819;48.030;14.710;2022-12-18T10:31:39;-3.10;81.07
68026;SHT31;54819;48.030;14.710;2022-12-18T10:34:12;-3.07;81.13
68026;SHT31;54819;48.030;14.710;2022-12-18T10:36:39;-3.08;81.37
68026;SHT31;54819;48.030;14.710;2022-12-18T10:39:17;-3.06;81.75
68026;SHT31;54819;48.030;14.710;2022-12-18T10:41:46;-3.00;81.38
68026;SHT31;54819;48.030;14.710;2022-12-18T10:44:18;-2.96;81.32
68026;SHT31;54819;48.030;14.710;2022-12-18T10:46:47;-2.96;81.53
68026;SHT31;54819;48.030;14.710;2022-12-18T10:49:18;-2.91;81.52
68026;SHT31;54819;48.030;14.710;2022-12-18T10:51:47;-2.89;81.30
68026;SHT31;54819;48.030;14.710;2022-12-18T10:54:22;-2.91;81.36
68026;SHT31;54819;48.030;14.710;2022-12-18T10:56:50;-2.90;81.45
68026;SHT31;54819;48.030;14.710;2022-12-18T10:59:17;-2.89;81.40
68026;SHT31;54819;48.030;14.710;2022-12-18T11:01:45;-2.90;81.30
68026;SHT31;54819;48.030;14.710;2022-12-18T11:06:59;-2.79;81.31
68026;SHT31;54819;48.030;14.710;2022-12-18T11:09:29;-2.77;81.19
68026;SHT31;54819;48.030;14.710;2022-12-18T11:12:14;-2.75;81.03
68026;SHT31;54819;48.030;14.710;2022-12-18T11:14:47;-2.78;80.94
68026;SHT31;54819;48.030;14.710;2022-12-18T11:17:22;-2.75;80.83
68026;SHT31;54819;48.030;14.710;2022-12-18T11:19:56;-2.81;80.85
68026;SHT31;54819;48.030;14.710;2022-12-18T11:22:28;-2.87;80.97
68026;SHT31;54819;48.030;14.710;2022-12-18T11:25:00;-2.93;81.30
68026;SHT31;54819;48.030;14.710;2022-12-18T11:28:00;-2.95;81.60
68026;SHT31;54819;48.030;14.710;2022-12-18T11:30:46;-2.93;81.57
68026;SHT31;54819;48.030;14.710;2022-12-18T11:33:20;-2.94;81.58
68026;SHT31;54819;48.030;14.710;2022-12-18T11:38:24;-2.87;81.68
68026;SHT31;54819;48.030;14.710;2022-12-18T11:43:31;-2.81;81.59
68026;SHT31;54819;48.030;14.710;2022-12-18T11:46:24;-2.77;81.36
68026;SHT31;54819;48.030;14.710;2022-12-18T11:49:01;-2.78;81.60
68026;SHT31;54819;48.030;14.710;2022-12-18T11:51:58;-2.78;81.48
68026;SHT31;54819;48.030;14.710;2022-12-18T11:54:42;-2.78;81.49
68026;SHT31;54819;48.030;14.710;2022-12-18T12:00:12;-2.79;81.58
68026;SHT31;54819;48.030;14.710;2022-12-18T12:03:06;-2.81;81.62
68026;SHT31;54819;48.030;14.710;2022-12-18T12:05:58;-2.82;81.68
68026;SHT31;54819;48.030;14.710;2022-12-18T12:16:34;-2.90;82.08
68026;SHT31;54819;48.030;14.710;2022-12-18T12:21:55;-3.01;82.75
68026;SHT31;54819;48.030;14.710;2022-12-18T12:27:15;-3.14;83.25
68026;SHT31;54819;48.030;14.710;2022-12-18T12:32:52;-3.22;83.59
68026;SHT31;54819;48.030;14.710;2022-12-18T12:35:46;-3.22;83.31
68026;SHT31;54819;48.030;14.710;2022-12-18T12:38:34;-3.27;83.48
68026;SHT31;54819;48.030;14.710;2022-12-18T12:41:25;-3.28;83.67
68026;SHT31;54819;48.030;14.710;2022-12-18T12:44:21;-3.27;83.68
68026;SHT31;54819;48.030;14.710;2022-12-18T12:46:52;-3.23;83.42
68026;SHT31;54819;48.030;14.710;2022-12-18T12:49:26;-3.20;83.25
68026;SHT31;54819;48.030;14.710;2022-12-18T12:52:07;-3.23;83.15
68026;SHT31;54819;48.030;14.710;2022-12-18T12:54:40;-3.32;83.44
68026;SHT31;54819;48.030;14.710;2022-12-18T13:02:35;-3.46;83.82
68026;SHT31;54819;48.030;14.710;2022-12-18T13:07:39;-3.47;83.86
68026;SHT31;54819;48.030;14.710;2022-12-18T13:12:55;-3.45;84.12
68026;SHT31;54819;48.030;14.710;2022-12-18T13:15:25;-3.45;84.15
68026;SHT31;54819;48.030;14.710;2022-12-18T13:18:04;-3.43;84.14
68026;SHT31;54819;48.030;14.710;2022-12-18T13:20:39;-3.41;84.21
68026;SHT31;54819;48.030;14.710;2022-12-18T13:34:24;-3.49;84.62
68026;SHT31;54819;48.030;14.710;2022-12-18T13:36:55;-3.45;84.70
68026;SHT31;54819;48.030;14.710;2022-12-18T13:39:32;-3.39;84.64
68026;SHT31;54819;48.030;14.710;2022-12-18T13:44:34;-3.19;84.02
68026;SHT31;54819;48.030;14.710;2022-12-18T13:50:20;-3.18;84.29
68026;SHT31;54819;48.030;14.710;2022-12-18T13:52:57;-3.20;84.19
68026;SHT31;54819;48.030;14.710;2022-12-18T13:55:24;-3.29;84.52
68026;SHT31;54819;48.030;14.710;2022-12-18T13:58:02;-3.34;84.65
68026;SHT31;54819;48.030;14.710;2022-12-18T14:00:31;-3.39;84.91
68026;SHT31;54819;48.030;14.710;2022-12-18T14:02:58;-3.36;85.09
68026;SHT31;54819;48.030;14.710;2022-12-18T14:05:30;-3.32;85.26
68026;SHT31;54819;48.030;14.710;2022-12-18T14:08:03;-3.27;85.15
68026;SHT31;54819;48.030;14.710;2022-12-18T14:10:34;-3.30;85.17
68026;SHT31;54819;48.030;14.710;2022-12-18T14:13:16;-3.33;85.41
68026;SHT31;54819;48.030;14.710;2022-12-18T14:15:50;-3.34;85.41
68026;SHT31;54819;48.030;14.710;2022-12-18T14:20:54;-3.38;85.63
68026;SHT31;54819;48.030;14.710;2022-12-18T14:23:34;-3.37;85.89
68026;SHT31;54819;48.030;14.710;2022-12-18T14:28:57;-3.33;85.88
68026;SHT31;54819;48.030;14.710;2022-12-18T14:31:28;-3.32;85.84
68026;SHT31;54819;48.030;14.710;2022-12-18T14:33:56;-3.30;85.81
68026;SHT31;54819;48.030;14.710;2022-12-18T14:36:24;-3.31;85.77
68026;SHT31;54819;48.030;14.710;2022-12-18T14:38:56;-3.32;85.79
68026;SHT31;54819;48.030;14.710;2022-12-18T14:41:25;-3.36;85.84
68026;SHT31;54819;48.030;14.710;2022-12-18T14:43:53;-3.40;85.85
68026;SHT31;54819;48.030;14.710;2022-12-18T14:46:30;-3.47;85.97
68026;SHT31;54819;48.030;14.710;2022-12-18T14:51:54;-3.58;86.44
68026;SHT31;54819;48.030;14.710;2022-12-18T14:54:23;-3.56;86.53
68026;SHT31;54819;48.030;14.710;2022-12-18T14:56:52;-3.52;86.53
68026;SHT31;54819;48.030;14.710;2022-12-18T14:59:29;-3.50;86.58
68026;SHT31;54819;48.030;14.710;2022-12-18T15:04:45;-3.46;86.46
68026;SHT31;54819;48.030;14.710;2022-12-18T15:09:40;-3.47;86.43
68026;SHT31;54819;48.030;14.710;2022-12-18T15:12:24;-3.50;86.48
68026;SHT31;54819;48.030;14.710;2022-12-18T15:14:59;-3.53;86.59
68026;SHT31;54819;48.030;14.710;2022-12-18T15:17:26;-3.53;86.64
68026;SHT31;54819;48.030;14.710;2022-12-18T15:19:58;-3.55;86.69
68026;SHT31;54819;48.030;14.710;2022-12-18T15:22:28;-3.55;86.80
68026;SHT31;54819;48.030;14.710;2022-12-18T15:24:57;-3.53;86.88
68026;SHT31;54819;48.030;14.710;2022-12-18T15:30:21;-3.49;86.88
68026;SHT31;54819;48.030;14.710;2022-12-18T15:32:51;-3.42;86.78
68026;SHT31;54819;48.030;14.710;2022-12-18T15:35:38;-3.39;86.51
68026;SHT31;54819;48.030;14.710;2022-12-18T15:38:12;-3.39;86.51
68026;SHT31;54819;48.030;14.710;2022-12-18T15:40:40;-3.39;86.54
68026;SHT31;54819;48.030;14.710;2022-12-18T15:43:07;-3.35;86.41
68026;SHT31;54819;48.030;14.710;2022-12-18T15:45:54;-3.37;86.38
68026;SHT31;54819;48.030;14.710;2022-12-18T15:48:21;-3.38;86.36
68026;SHT31;54819;48.030;14.710;2022-12-18T15:50:50;-3.44;86.58
68026;SHT31;54819;48.030;14.710;2022-12-18T15:53:18;-3.43;86.80
68026;SHT31;54819;48.030;14.710;2022-12-18T15:55:45;-3.39;86.72
68026;SHT31;54819;48.030;14.710;2022-12-18T15:58:31;-3.40;86.79
68026;SHT31;54819;48.030;14.710;2022-12-18T16:00:59;-3.37;86.57
68026;SHT31;54819;48.030;14.710;2022-12-18T16:03:27;-3.39;86.54
68026;SHT31;54819;48.030;14.710;2022-12-18T16:05:55;-3.41;86.60
68026;SHT31;54819;48.030;14.710;2022-12-18T16:08:23;-3.42;86.63
68026;SHT31;54819;48.030;14.710;2022-12-18T16:10:50;-3.43;86.56
68026;SHT31;54819;48.030;14.710;2022-12-18T16:13:17;-3.46;86.67
68026;SHT31;54819;48.030;14.710;2022-12-18T16:15:46;-3.50;86.76
68026;SHT31;54819;48.030;14.710;2022-12-18T16:18:13;-3.52;86.77
68026;SHT31;54819;48.030;14.710;2022-12-18T16:20:40;-3.53;86.91
68026;SHT31;54819;48.030;14.710;2022-12-18T16:23:07;-3.53;87.06
68026;SHT31;54819;48.030;14.710;2022-12-18T16:25:34;-3.47;87.02
68026;SHT31;54819;48.030;14.710;2022-12-18T16:28:01;-3.43;86.68
68026;SHT31;54819;48.030;14.710;2022-12-18T16:30:30;-3.47;86.85
68026;SHT31;54819;48.030;14.710;2022-12-18T16:33:05;-3.42;86.76
68026;SHT31;54819;48.030;14.710;2022-12-18T16:35:33;-3.43;86.60
68026;SHT31;54819;48.030;14.710;2022-12-18T16:38:00;-3.46;86.78
68026;SHT31;54819;48.030;14.710;2022-12-18T16:40:27;-3.46;86.70
68026;SHT31;54819;48.030;14.710;2022-12-18T16:42:54;-3.51;86.77
68026;SHT31;54819;48.030;14.710;2022-12-18T16:45:21;-3.55;86.94
68026;SHT31;54819;48.030;14.710;2022-12-18T16:47:48;-3.58;87.05
68026;SHT31;54819;48.030;14.710;2022-12-18T16:50:16;-3.60;87.20
68026;SHT31;54819;48.030;14.710;2022-12-18T16:52:49;-3.61;87.24
68026;SHT31;54819;48.030;14.710;2022-12-18T16:55:20;-3.58;87.27
68026;SHT31;54819;48.030;14.710;2022-12-18T16:57:47;-3.58;87.16
68026;SHT31;54819;48.030;14.710;2022-12-18T17:00:14;-3.58;87.10
68026;SHT31;54819;48.030;14.710;2022-12-18T17:02:42;-3.58;87.23
68026;SHT31;54819;48.030;14.710;2022-12-18T17:05:12;-3.54;87.11
68026;SHT31;54819;48.030;14.710;2022-12-18T17:07:39;-3.56;86.86
68026;SHT31;54819;48.030;14.710;2022-12-18T17:10:07;-3.63;87.11
68026;SHT31;54819;48.030;14.710;2022-12-18T17:12:38;-3.63;87.04
68026;SHT31;54819;48.030;14.710;2022-12-18T17:15:15;-3.65;87.08
68026;SHT31;54819;48.030;14.710;2022-12-18T17:17:44;-3.67;87.10
68026;SHT31;54819;48.030;14.710;2022-12-18T17:20:15;-3.68;87.16
68026;SHT31;54819;48.030;14.710;2022-12-18T17:22:44;-3.65;87.04